EJU93RL LFLL-LIEO
Flight info
| Callsign | EJU93RL |
|---|---|
| Flight time | 1h 10m |
| Altitude | 23000 |
| Route | RISOR T47 GEMLA DCT VANAS DCT MEDAM DCT NITAM DCT MOGBO/N0427F350 DCT ENOBA DCT ERTEV DCT TORTU DCT RAPUR DCT OKBON DCT BEBEV DCT AJO DCT CORSI |
| Aircraft | A320/M-SDE2E3FGHIJ1RWXYZ/LB1 |
Departure
| Time | 2026-04-29 09:55 |
|---|---|
| Airport | Lyon Saint-Exupéry Airport (LFLL) |
Arrival
| Time | 2026-04-29 11:06 |
|---|---|
| Airport | Olbia Costa Smeralda Airport (LIEO) |
| Time | Latitude | Longitude | Altitude | Speed | Heading |
|---|---|---|---|---|---|
| 2026-04-29 09:25 | 45.71570 | 5.07784 | 797 ft | 0 kts | 352° |
| 2026-04-29 09:45 | 45.71559 | 5.07786 | 796 ft | 4 kts | 351° |
| 2026-04-29 09:45 | 45.71533 | 5.07792 | 796 ft | 4 kts | 358° |
| 2026-04-29 09:45 | 45.71511 | 5.07789 | 796 ft | 3 kts | 15° |
| 2026-04-29 09:45 | 45.71487 | 5.07777 | 796 ft | 4 kts | 47° |
| 2026-04-29 09:46 | 45.71483 | 5.07753 | 796 ft | 4 kts | 104° |
| 2026-04-29 09:46 | 45.71485 | 5.07744 | 796 ft | 0 kts | 104° |
| 2026-04-29 09:48 | 45.71475 | 5.07791 | 796 ft | 8 kts | 111° |
| 2026-04-29 09:48 | 45.71455 | 5.07841 | 796 ft | 10 kts | 116° |
| 2026-04-29 09:48 | 45.71440 | 5.07927 | 797 ft | 9 kts | 90° |
| 2026-04-29 09:48 | 45.71456 | 5.08017 | 800 ft | 9 kts | 90° |
| 2026-04-29 09:49 | 45.71443 | 5.08108 | 802 ft | 10 kts | 104° |
| 2026-04-29 09:49 | 45.71422 | 5.08219 | 802 ft | 13 kts | 104° |
| 2026-04-29 09:49 | 45.71409 | 5.08359 | 804 ft | 15 kts | 85° |
| 2026-04-29 09:49 | 45.71416 | 5.08474 | 807 ft | 9 kts | 94° |
| 2026-04-29 09:50 | 45.71379 | 5.08530 | 811 ft | 8 kts | 163° |
| 2026-04-29 09:50 | 45.71323 | 5.08539 | 813 ft | 9 kts | 175° |
| 2026-04-29 09:50 | 45.71255 | 5.08547 | 814 ft | 11 kts | 175° |
| 2026-04-29 09:50 | 45.71171 | 5.08559 | 813 ft | 13 kts | 165° |
| 2026-04-29 09:51 | 45.71115 | 5.08654 | 816 ft | 13 kts | 109° |
| 2026-04-29 09:51 | 45.71091 | 5.08784 | 813 ft | 13 kts | 104° |
| 2026-04-29 09:51 | 45.71076 | 5.08877 | 814 ft | 3 kts | 96° |
| 2026-04-29 09:51 | 45.71076 | 5.08878 | 815 ft | 0 kts | 95° |
| 2026-04-29 09:52 | 45.71076 | 5.08889 | 817 ft | 6 kts | 91° |
| 2026-04-29 09:53 | 45.71086 | 5.08984 | 821 ft | 10 kts | 65° |
| 2026-04-29 09:53 | 45.71154 | 5.09023 | 819 ft | 12 kts | 356° |
| 2026-04-29 09:53 | 45.71175 | 5.09021 | 819 ft | 0 kts | 355° |
| 2026-04-29 09:54 | 45.71223 | 5.09015 | 818 ft | 32 kts | 355° |
| 2026-04-29 09:55 | 45.71707 | 5.08959 | 815 ft | 103 kts | 355° |
| 2026-04-29 09:55 | 45.72615 | 5.08849 | 792 ft | 158 kts | 355° |
| 2026-04-29 09:55 | 45.73823 | 5.08685 | 1193 ft | 173 kts | 356° |
| 2026-04-29 09:55 | 45.75033 | 5.08535 | 1904 ft | 177 kts | 358° |
| 2026-04-29 09:56 | 45.76333 | 5.08385 | 2293 ft | 199 kts | 357° |
| 2026-04-29 09:56 | 45.77787 | 5.08216 | 2619 ft | 220 kts | 356° |
| 2026-04-29 09:56 | 45.79347 | 5.08030 | 3245 ft | 229 kts | 356° |
| 2026-04-29 09:56 | 45.80951 | 5.07836 | 4071 ft | 234 kts | 356° |
| 2026-04-29 09:57 | 45.82576 | 5.07936 | 4847 ft | 236 kts | 21° |
| 2026-04-29 09:57 | 45.83849 | 5.09332 | 5575 ft | 233 kts | 62° |
| 2026-04-29 09:57 | 45.84213 | 5.11526 | 6279 ft | 229 kts | 101° |
| 2026-04-29 09:57 | 45.83539 | 5.13541 | 6963 ft | 228 kts | 135° |
| 2026-04-29 09:58 | 45.82199 | 5.14733 | 7685 ft | 229 kts | 160° |
| 2026-04-29 09:58 | 45.80672 | 5.15526 | 8226 ft | 243 kts | 161° |
| 2026-04-29 09:58 | 45.79039 | 5.16376 | 8835 ft | 254 kts | 161° |
| 2026-04-29 09:58 | 45.77363 | 5.17255 | 9649 ft | 259 kts | 161° |
| 2026-04-29 09:59 | 45.75662 | 5.18151 | 10432 ft | 262 kts | 161° |
| 2026-04-29 09:59 | 45.73938 | 5.19064 | 11179 ft | 266 kts | 160° |
| 2026-04-29 09:59 | 45.72257 | 5.20208 | 11928 ft | 270 kts | 147° |
| 2026-04-29 09:59 | 45.70805 | 5.22002 | 12422 ft | 287 kts | 131° |
| 2026-04-29 10:00 | 45.69586 | 5.24416 | 12673 ft | 311 kts | 126° |
| 2026-04-29 10:00 | 45.68313 | 5.27049 | 12974 ft | 331 kts | 126° |
| 2026-04-29 10:00 | 45.66984 | 5.29787 | 13599 ft | 338 kts | 126° |
| 2026-04-29 10:00 | 45.65626 | 5.32561 | 14256 ft | 343 kts | 126° |
| 2026-04-29 10:01 | 45.64248 | 5.35359 | 14921 ft | 345 kts | 126° |
| 2026-04-29 10:01 | 45.62858 | 5.38176 | 15568 ft | 349 kts | 126° |
| 2026-04-29 10:01 | 45.61453 | 5.41017 | 16218 ft | 352 kts | 126° |
| 2026-04-29 10:01 | 45.60035 | 5.43886 | 16857 ft | 356 kts | 126° |
| 2026-04-29 10:02 | 45.58599 | 5.46786 | 17491 ft | 360 kts | 126° |
| 2026-04-29 10:02 | 45.57142 | 5.49722 | 18074 ft | 365 kts | 126° |
| 2026-04-29 10:02 | 45.55667 | 5.52691 | 18640 ft | 369 kts | 126° |
| 2026-04-29 10:02 | 45.54175 | 5.55695 | 19157 ft | 373 kts | 126° |
| 2026-04-29 10:03 | 45.52757 | 5.58810 | 19650 ft | 378 kts | 118° |
| 2026-04-29 10:03 | 45.51762 | 5.62305 | 20157 ft | 383 kts | 106° |
| 2026-04-29 10:03 | 45.51291 | 5.66048 | 20683 ft | 387 kts | 94° |
| 2026-04-29 10:03 | 45.51371 | 5.69888 | 21195 ft | 390 kts | 82° |
| 2026-04-29 10:04 | 45.51743 | 5.73734 | 21713 ft | 393 kts | 82° |
| 2026-04-29 10:04 | 45.52117 | 5.77668 | 22209 ft | 397 kts | 82° |
| 2026-04-29 10:04 | 45.52481 | 5.81589 | 22709 ft | 401 kts | 82° |
| 2026-04-29 10:04 | 45.52847 | 5.85541 | 23186 ft | 404 kts | 82° |
| 2026-04-29 10:05 | 45.53215 | 5.89529 | 23664 ft | 407 kts | 82° |
| 2026-04-29 10:05 | 45.53582 | 5.93547 | 24064 ft | 411 kts | 82° |
| 2026-04-29 10:05 | 45.53953 | 5.97611 | 24462 ft | 414 kts | 82° |
| 2026-04-29 10:05 | 45.54324 | 6.01688 | 24867 ft | 416 kts | 82° |
| 2026-04-29 10:06 | 45.54699 | 6.05799 | 25253 ft | 419 kts | 82° |
| 2026-04-29 10:06 | 45.55075 | 6.09934 | 25632 ft | 422 kts | 82° |
| 2026-04-29 10:06 | 45.55450 | 6.14089 | 26001 ft | 424 kts | 82° |
| 2026-04-29 10:06 | 45.55827 | 6.18283 | 26383 ft | 427 kts | 82° |
| 2026-04-29 10:07 | 45.56202 | 6.22499 | 26762 ft | 430 kts | 82° |
| 2026-04-29 10:07 | 45.56582 | 6.26738 | 27137 ft | 432 kts | 82° |
| 2026-04-29 10:07 | 45.56770 | 6.31085 | 27503 ft | 436 kts | 91° |
| 2026-04-29 10:07 | 45.56452 | 6.35403 | 27865 ft | 439 kts | 101° |
| 2026-04-29 10:08 | 45.55636 | 6.39614 | 28212 ft | 442 kts | 110° |
| 2026-04-29 10:08 | 45.54493 | 6.43689 | 28569 ft | 444 kts | 112° |
| 2026-04-29 10:08 | 45.53332 | 6.47794 | 28894 ft | 447 kts | 112° |
| 2026-04-29 10:08 | 45.52151 | 6.51973 | 29251 ft | 450 kts | 112° |
| 2026-04-29 10:09 | 45.50976 | 6.56121 | 29596 ft | 452 kts | 112° |
| 2026-04-29 10:09 | 45.49796 | 6.60278 | 29948 ft | 455 kts | 112° |
| 2026-04-29 10:09 | 45.48605 | 6.64471 | 30275 ft | 457 kts | 111° |
| 2026-04-29 10:09 | 45.47359 | 6.68655 | 30572 ft | 459 kts | 116° |
| 2026-04-29 10:10 | 45.45739 | 6.72571 | 30860 ft | 461 kts | 126° |
| 2026-04-29 10:10 | 45.43721 | 6.76050 | 31127 ft | 462 kts | 135° |
| 2026-04-29 10:10 | 45.41283 | 6.79129 | 31386 ft | 463 kts | 144° |
| 2026-04-29 10:10 | 45.38657 | 6.81786 | 31715 ft | 463 kts | 146° |
| 2026-04-29 10:11 | 45.36030 | 6.84415 | 32123 ft | 461 kts | 146° |
| 2026-04-29 10:11 | 45.33410 | 6.87032 | 32540 ft | 460 kts | 146° |
| 2026-04-29 10:11 | 45.30792 | 6.89644 | 32943 ft | 459 kts | 146° |
| 2026-04-29 10:11 | 45.28216 | 6.92214 | 33317 ft | 458 kts | 146° |
| 2026-04-29 10:12 | 45.25685 | 6.95043 | 33705 ft | 458 kts | 138° |
| 2026-04-29 10:12 | 45.23395 | 6.98191 | 34081 ft | 458 kts | 136° |
| 2026-04-29 10:12 | 45.21118 | 7.01341 | 34404 ft | 457 kts | 136° |
| 2026-04-29 10:12 | 45.18840 | 7.04485 | 34722 ft | 457 kts | 137° |
| 2026-04-29 10:13 | 45.16565 | 7.07614 | 35024 ft | 456 kts | 137° |
| 2026-04-29 10:13 | 45.14284 | 7.10743 | 35155 ft | 454 kts | 137° |
| 2026-04-29 10:13 | 45.09964 | 7.17100 | 35196 ft | 448 kts | 128° |
| 2026-04-29 10:14 | 45.06376 | 7.24324 | 35191 ft | 449 kts | 126° |
| 2026-04-29 10:14 | 45.02786 | 7.31549 | 35195 ft | 449 kts | 126° |
| 2026-04-29 10:15 | 44.99186 | 7.38751 | 35104 ft | 448 kts | 127° |
| 2026-04-29 10:15 | 44.94940 | 7.45132 | 35107 ft | 446 kts | 138° |
| 2026-04-29 10:16 | 44.91186 | 7.50135 | 35102 ft | 446 kts | 138° |
| 2026-04-29 10:16 | 44.85906 | 7.57167 | 35119 ft | 446 kts | 138° |
| 2026-04-29 10:17 | 44.81396 | 7.63175 | 35119 ft | 447 kts | 138° |
| 2026-04-29 10:17 | 44.76875 | 7.69177 | 35129 ft | 447 kts | 138° |
| 2026-04-29 10:18 | 44.72340 | 7.75184 | 35124 ft | 447 kts | 138° |
| 2026-04-29 10:18 | 44.67788 | 7.81197 | 35134 ft | 447 kts | 138° |
| 2026-04-29 10:19 | 44.63252 | 7.87165 | 35130 ft | 446 kts | 138° |
| 2026-04-29 10:19 | 44.58727 | 7.93128 | 35134 ft | 446 kts | 138° |
| 2026-04-29 10:20 | 44.54193 | 7.99080 | 35132 ft | 446 kts | 138° |
| 2026-04-29 10:20 | 44.49651 | 8.05023 | 35111 ft | 446 kts | 138° |
| 2026-04-29 10:21 | 44.45880 | 8.09944 | 35106 ft | 446 kts | 138° |
| 2026-04-29 10:21 | 44.40605 | 8.16829 | 35107 ft | 446 kts | 138° |
| 2026-04-29 10:22 | 44.36064 | 8.22742 | 35088 ft | 446 kts | 138° |
| 2026-04-29 10:22 | 44.32249 | 8.27688 | 35088 ft | 446 kts | 138° |
| 2026-04-29 10:23 | 44.27462 | 8.33150 | 35075 ft | 444 kts | 146° |
| 2026-04-29 10:23 | 44.22433 | 8.38151 | 35073 ft | 444 kts | 146° |
| 2026-04-29 10:24 | 44.17401 | 8.43155 | 35075 ft | 444 kts | 146° |
| 2026-04-29 10:24 | 44.12374 | 8.48159 | 35068 ft | 444 kts | 146° |
| 2026-04-29 10:25 | 44.07343 | 8.53145 | 35063 ft | 444 kts | 146° |
| 2026-04-29 10:25 | 44.02317 | 8.58115 | 35062 ft | 443 kts | 146° |
| 2026-04-29 10:26 | 43.97290 | 8.63077 | 35064 ft | 443 kts | 146° |
| 2026-04-29 10:26 | 43.92261 | 8.68035 | 35061 ft | 443 kts | 146° |
| 2026-04-29 10:27 | 43.84714 | 8.75446 | 35058 ft | 443 kts | 147° |
| 2026-04-29 10:28 | 43.79689 | 8.80365 | 35060 ft | 442 kts | 147° |
| 2026-04-29 10:28 | 43.74669 | 8.85270 | 35060 ft | 442 kts | 147° |
| 2026-04-29 10:29 | 43.69643 | 8.90164 | 35053 ft | 442 kts | 147° |
| 2026-04-29 10:29 | 43.64324 | 8.94284 | 35043 ft | 436 kts | 163° |
| 2026-04-29 10:30 | 43.58437 | 8.95831 | 35052 ft | 429 kts | 182° |
| 2026-04-29 10:30 | 43.52482 | 8.95820 | 35049 ft | 428 kts | 183° |
| 2026-04-29 10:31 | 43.46513 | 8.95825 | 35037 ft | 429 kts | 182° |
| 2026-04-29 10:31 | 43.43547 | 8.95639 | 35036 ft | 424 kts | 194° |
| 2026-04-29 10:31 | 43.40712 | 8.94602 | 35040 ft | 422 kts | 197° |
| 2026-04-29 10:32 | 43.34957 | 8.92888 | 35033 ft | 423 kts | 194° |
| 2026-04-29 10:32 | 43.29299 | 8.90770 | 35030 ft | 421 kts | 203° |
| 2026-04-29 10:33 | 43.23918 | 8.87651 | 35020 ft | 419 kts | 207° |
| 2026-04-29 10:33 | 43.18611 | 8.84322 | 35022 ft | 419 kts | 206° |
| 2026-04-29 10:34 | 43.13249 | 8.81158 | 35018 ft | 420 kts | 205° |
| 2026-04-29 10:34 | 43.07842 | 8.78120 | 35009 ft | 420 kts | 204° |
| 2026-04-29 10:35 | 43.02432 | 8.75099 | 35012 ft | 420 kts | 205° |
| 2026-04-29 10:35 | 42.97027 | 8.72056 | 35009 ft | 420 kts | 205° |
| 2026-04-29 10:36 | 42.91629 | 8.69011 | 34999 ft | 420 kts | 205° |
| 2026-04-29 10:36 | 42.89051 | 8.67270 | 34986 ft | 416 kts | 219° |
| 2026-04-29 10:36 | 42.87072 | 8.64431 | 34989 ft | 409 kts | 241° |
| 2026-04-29 10:37 | 42.84466 | 8.57608 | 34984 ft | 409 kts | 228° |
| 2026-04-29 10:37 | 42.82205 | 8.55291 | 34980 ft | 412 kts | 206° |
| 2026-04-29 10:37 | 42.79420 | 8.54337 | 34977 ft | 417 kts | 185° |
| 2026-04-29 10:38 | 42.73588 | 8.54227 | 34967 ft | 420 kts | 185° |
| 2026-04-29 10:38 | 42.67766 | 8.53514 | 34959 ft | 421 kts | 190° |
| 2026-04-29 10:39 | 42.61977 | 8.52308 | 34969 ft | 422 kts | 191° |
| 2026-04-29 10:39 | 42.56165 | 8.51058 | 34975 ft | 423 kts | 191° |
| 2026-04-29 10:40 | 42.50331 | 8.49912 | 34979 ft | 424 kts | 190° |
| 2026-04-29 10:40 | 42.44441 | 8.48831 | 34983 ft | 425 kts | 190° |
| 2026-04-29 10:41 | 42.38587 | 8.47746 | 34987 ft | 425 kts | 190° |
| 2026-04-29 10:41 | 42.32731 | 8.46642 | 34987 ft | 425 kts | 190° |
| 2026-04-29 10:42 | 42.26881 | 8.45536 | 34982 ft | 425 kts | 188° |
| 2026-04-29 10:42 | 42.20971 | 8.46002 | 34981 ft | 430 kts | 168° |
| 2026-04-29 10:42 | 42.18128 | 8.47296 | 34982 ft | 433 kts | 157° |
| 2026-04-29 10:43 | 42.15457 | 8.49182 | 34984 ft | 434 kts | 153° |
| 2026-04-29 10:43 | 42.10162 | 8.53127 | 34888 ft | 440 kts | 153° |
| 2026-04-29 10:43 | 42.07463 | 8.55119 | 34642 ft | 444 kts | 153° |
| 2026-04-29 10:44 | 42.04745 | 8.57119 | 34404 ft | 446 kts | 153° |
| 2026-04-29 10:44 | 42.02022 | 8.59125 | 34167 ft | 447 kts | 153° |
| 2026-04-29 10:44 | 41.99298 | 8.61136 | 33722 ft | 446 kts | 153° |
| 2026-04-29 10:44 | 41.96582 | 8.63142 | 33111 ft | 443 kts | 153° |
| 2026-04-29 10:45 | 41.93896 | 8.65120 | 32531 ft | 440 kts | 153° |
| 2026-04-29 10:45 | 41.91221 | 8.67083 | 31953 ft | 437 kts | 153° |
| 2026-04-29 10:45 | 41.88559 | 8.69032 | 31378 ft | 435 kts | 153° |
| 2026-04-29 10:45 | 41.85906 | 8.70973 | 30801 ft | 433 kts | 153° |
| 2026-04-29 10:46 | 41.83273 | 8.72900 | 30236 ft | 430 kts | 153° |
| 2026-04-29 10:46 | 41.80652 | 8.74819 | 29620 ft | 428 kts | 153° |
| 2026-04-29 10:46 | 41.77970 | 8.76477 | 29078 ft | 421 kts | 162° |
| 2026-04-29 10:46 | 41.75163 | 8.77490 | 28533 ft | 415 kts | 172° |
| 2026-04-29 10:47 | 41.72316 | 8.77881 | 28004 ft | 409 kts | 179° |
| 2026-04-29 10:47 | 41.69492 | 8.78115 | 27484 ft | 405 kts | 178° |
| 2026-04-29 10:47 | 41.66692 | 8.78354 | 26985 ft | 401 kts | 178° |
| 2026-04-29 10:47 | 41.63920 | 8.78593 | 26489 ft | 397 kts | 178° |
| 2026-04-29 10:48 | 41.61184 | 8.78833 | 26024 ft | 393 kts | 179° |
| 2026-04-29 10:48 | 41.58495 | 8.79070 | 25565 ft | 389 kts | 178° |
| 2026-04-29 10:48 | 41.55782 | 8.79308 | 25117 ft | 385 kts | 179° |
| 2026-04-29 10:48 | 41.53118 | 8.79542 | 24668 ft | 382 kts | 179° |
| 2026-04-29 10:49 | 41.50477 | 8.79774 | 24214 ft | 378 kts | 179° |
| 2026-04-29 10:49 | 41.47863 | 8.80000 | 23753 ft | 375 kts | 178° |
| 2026-04-29 10:49 | 41.45267 | 8.80219 | 23258 ft | 373 kts | 178° |
| 2026-04-29 10:49 | 41.42691 | 8.80434 | 22798 ft | 369 kts | 179° |
| 2026-04-29 10:50 | 41.40146 | 8.80648 | 22348 ft | 365 kts | 180° |
| 2026-04-29 10:50 | 41.37586 | 8.80867 | 21891 ft | 362 kts | 180° |
| 2026-04-29 10:50 | 41.35088 | 8.81084 | 21443 ft | 359 kts | 180° |
| 2026-04-29 10:50 | 41.32610 | 8.81418 | 20969 ft | 359 kts | 172° |
| 2026-04-29 10:51 | 41.30164 | 8.82051 | 20507 ft | 357 kts | 173° |
| 2026-04-29 10:51 | 41.27727 | 8.82678 | 20041 ft | 356 kts | 171° |
| 2026-04-29 10:51 | 41.25303 | 8.83302 | 19574 ft | 355 kts | 173° |
| 2026-04-29 10:51 | 41.22885 | 8.83920 | 19116 ft | 354 kts | 172° |
| 2026-04-29 10:52 | 41.20468 | 8.84536 | 18648 ft | 353 kts | 172° |
| 2026-04-29 10:52 | 41.18057 | 8.85150 | 18173 ft | 353 kts | 172° |
| 2026-04-29 10:52 | 41.15648 | 8.85764 | 17674 ft | 351 kts | 172° |
| 2026-04-29 10:52 | 41.13258 | 8.86376 | 17222 ft | 349 kts | 172° |
| 2026-04-29 10:53 | 41.10880 | 8.86981 | 16772 ft | 346 kts | 172° |
| 2026-04-29 10:53 | 41.08519 | 8.87580 | 16324 ft | 344 kts | 172° |
| 2026-04-29 10:53 | 41.06172 | 8.88178 | 15883 ft | 343 kts | 172° |
| 2026-04-29 10:53 | 41.03835 | 8.88776 | 15445 ft | 341 kts | 172° |
| 2026-04-29 10:54 | 41.01506 | 8.89371 | 15001 ft | 340 kts | 172° |
| 2026-04-29 10:54 | 40.99187 | 8.89964 | 14559 ft | 339 kts | 173° |
| 2026-04-29 10:54 | 40.96872 | 8.90551 | 14126 ft | 339 kts | 173° |
| 2026-04-29 10:54 | 40.94557 | 8.91135 | 13656 ft | 338 kts | 173° |
| 2026-04-29 10:55 | 40.92250 | 8.91718 | 13189 ft | 337 kts | 173° |
| 2026-04-29 10:55 | 40.89956 | 8.92298 | 12738 ft | 334 kts | 172° |
| 2026-04-29 10:55 | 40.87678 | 8.92876 | 12286 ft | 332 kts | 172° |
| 2026-04-29 10:55 | 40.85373 | 8.93460 | 11862 ft | 329 kts | 172° |
| 2026-04-29 10:56 | 40.83192 | 8.94016 | 11734 ft | 310 kts | 172° |
| 2026-04-29 10:56 | 40.81150 | 8.94538 | 11610 ft | 288 kts | 172° |
| 2026-04-29 10:56 | 40.79245 | 8.95024 | 11486 ft | 270 kts | 173° |
| 2026-04-29 10:56 | 40.77454 | 8.95477 | 11239 ft | 257 kts | 173° |
| 2026-04-29 10:57 | 40.76302 | 8.95767 | 11125 ft | 254 kts | 173° |
| 2026-04-29 10:57 | 40.74593 | 8.96405 | 11001 ft | 257 kts | 159° |
| 2026-04-29 10:57 | 40.73036 | 8.97634 | 10638 ft | 265 kts | 148° |
| 2026-04-29 10:57 | 40.71553 | 8.99026 | 10389 ft | 262 kts | 148° |
| 2026-04-29 10:58 | 40.70059 | 9.00423 | 10095 ft | 261 kts | 148° |
| 2026-04-29 10:58 | 40.68593 | 9.01790 | 9802 ft | 259 kts | 148° |
| 2026-04-29 10:58 | 40.67116 | 9.03263 | 9153 ft | 273 kts | 137° |
| 2026-04-29 10:58 | 40.66228 | 9.05483 | 8714 ft | 282 kts | 102° |
| 2026-04-29 10:59 | 40.66414 | 9.08049 | 8306 ft | 287 kts | 71° |
| 2026-04-29 10:59 | 40.67331 | 9.10381 | 7912 ft | 288 kts | 57° |
| 2026-04-29 10:59 | 40.68514 | 9.12513 | 7519 ft | 289 kts | 52° |
| 2026-04-29 10:59 | 40.69768 | 9.14577 | 7103 ft | 287 kts | 52° |
| 2026-04-29 11:00 | 40.70987 | 9.16609 | 6726 ft | 277 kts | 54° |
| 2026-04-29 11:00 | 40.72190 | 9.18524 | 6362 ft | 266 kts | 50° |
| 2026-04-29 11:00 | 40.73345 | 9.20380 | 6007 ft | 258 kts | 55° |
| 2026-04-29 11:00 | 40.74353 | 9.22252 | 5834 ft | 245 kts | 58° |
| 2026-04-29 11:01 | 40.75309 | 9.24079 | 5521 ft | 241 kts | 57° |
| 2026-04-29 11:01 | 40.76270 | 9.25906 | 5160 ft | 242 kts | 56° |
| 2026-04-29 11:01 | 40.77244 | 9.27752 | 4800 ft | 239 kts | 56° |
| 2026-04-29 11:01 | 40.78180 | 9.29523 | 4419 ft | 231 kts | 57° |
| 2026-04-29 11:02 | 40.79078 | 9.31226 | 4066 ft | 222 kts | 57° |
| 2026-04-29 11:02 | 40.79942 | 9.32866 | 3743 ft | 214 kts | 56° |
| 2026-04-29 11:02 | 40.80781 | 9.34458 | 3435 ft | 201 kts | 58° |
| 2026-04-29 11:02 | 40.81549 | 9.35915 | 3131 ft | 188 kts | 58° |
| 2026-04-29 11:03 | 40.82277 | 9.37301 | 2843 ft | 179 kts | 57° |
| 2026-04-29 11:03 | 40.82971 | 9.38621 | 2590 ft | 170 kts | 57° |
| 2026-04-29 11:03 | 40.83631 | 9.39875 | 2332 ft | 163 kts | 58° |
| 2026-04-29 11:03 | 40.84263 | 9.41078 | 2078 ft | 155 kts | 56° |
| 2026-04-29 11:04 | 40.84864 | 9.42222 | 1847 ft | 149 kts | 57° |
| 2026-04-29 11:04 | 40.85445 | 9.43327 | 1624 ft | 145 kts | 57° |
| 2026-04-29 11:04 | 40.86017 | 9.44419 | 1403 ft | 145 kts | 57° |
| 2026-04-29 11:04 | 40.86592 | 9.45515 | 1171 ft | 144 kts | 56° |
| 2026-04-29 11:05 | 40.87158 | 9.46594 | 940 ft | 146 kts | 57° |
| 2026-04-29 11:05 | 40.87730 | 9.47686 | 715 ft | 143 kts | 56° |
| 2026-04-29 11:05 | 40.88281 | 9.48769 | 483 ft | 147 kts | 58° |
| 2026-04-29 11:05 | 40.88909 | 9.49916 | 274 ft | 151 kts | 58° |
| 2026-04-29 11:06 | 40.89501 | 9.51066 | 66 ft | 153 kts | 61° |
| 2026-04-29 11:06 | 40.90049 | 9.52128 | 34 ft | 121 kts | 58° |
| 2026-04-29 11:06 | 40.90315 | 9.52625 | 34 ft | 23 kts | 55° |
| 2026-04-29 11:06 | 40.90422 | 9.52684 | 34 ft | 15 kts | 344° |
| 2026-04-29 11:07 | 40.90455 | 9.52566 | 34 ft | 15 kts | 274° |
| 2026-04-29 11:07 | 40.90424 | 9.52437 | 34 ft | 16 kts | 235° |
| 2026-04-29 11:07 | 40.90361 | 9.52313 | 34 ft | 17 kts | 236° |
| 2026-04-29 11:07 | 40.90291 | 9.52179 | 34 ft | 18 kts | 234° |
| 2026-04-29 11:08 | 40.90215 | 9.52034 | 34 ft | 20 kts | 233° |
| 2026-04-29 11:08 | 40.90180 | 9.51887 | 34 ft | 16 kts | 279° |
| 2026-04-29 11:08 | 40.90215 | 9.51791 | 33 ft | 10 kts | 306° |
| 2026-04-29 11:08 | 40.90198 | 9.51717 | 34 ft | 8 kts | 236° |
| 2026-04-29 11:09 | 40.90167 | 9.51656 | 34 ft | 8 kts | 235° |
| 2026-04-29 11:09 | 40.90138 | 9.51602 | 34 ft | 7 kts | 235° |
| 2026-04-29 11:09 | 40.90112 | 9.51553 | 34 ft | 6 kts | 235° |
| 2026-04-29 11:09 | 40.90088 | 9.51507 | 34 ft | 9 kts | 235° |
| 2026-04-29 11:10 | 40.90063 | 9.51431 | 34 ft | 9 kts | 250° |
| 2026-04-29 11:10 | 40.90034 | 9.51367 | 33 ft | 8 kts | 234° |
| 2026-04-29 11:10 | 40.90037 | 9.51323 | 34 ft | 5 kts | 320° |
| 2026-04-29 11:10 | 40.90061 | 9.51320 | 34 ft | 3 kts | 14° |
| 2026-04-29 11:11 | 40.90077 | 9.51329 | 34 ft | 2 kts | 24° |
| 2026-04-29 11:11 | 40.90078 | 9.51330 | 34 ft | 0 kts | 24° |